Time;durP1;ratioP1;P1;durP2;ratioP2;P2;SDS_P1;SDS_P2;PMS_P1;PMS_P2;Temp;Humidity;BMP_temperature;BMP_pressure;BME280_temperature;BME280_humidity;BME280_pressure;Samples;Min_cycle;Max_cycle;Signal;HPM_P1;HPM_P2
2022/05/01 00:01:04;;;;;;;34.30;22.90;;;9.70;99.90;;;;;;5076771;28;20123;-78
2022/05/01 00:03:33;;;;;;;33.03;24.33;;;9.60;99.90;;;;;;5078087;28;20044;-78
2022/05/01 00:06:03;;;;;;;37.13;24.20;;;9.60;99.90;;;;;;5078825;28;20491;-76
2022/05/01 00:08:31;;;;;;;30.83;23.00;;;9.60;99.90;;;;;;5075668;28;20553;-77
2022/05/01 00:11:00;;;;;;;33.65;23.48;;;9.60;99.90;;;;;;5074720;28;20137;-77
2022/05/01 00:13:30;;;;;;;32.65;22.67;;;9.60;99.90;;;;;;5074954;28;20054;-77
2022/05/01 00:15:58;;;;;;;30.73;21.50;;;9.50;99.90;;;;;;5075280;28;20132;-78
2022/05/01 00:18:25;;;;;;;30.73;21.45;;;9.40;99.90;;;;;;5074833;28;20044;-77
2022/05/01 00:20:53;;;;;;;32.15;24.88;;;9.40;99.90;;;;;;5075024;28;20480;-77
2022/05/01 00:23:20;;;;;;;32.30;22.73;;;9.40;99.90;;;;;;5075346;28;20484;-78
2022/05/01 00:25:48;;;;;;;27.83;20.45;;;9.40;99.90;;;;;;5075152;28;20511;-77
2022/05/01 00:28:17;;;;;;;26.50;20.05;;;9.40;99.90;;;;;;5077379;28;20036;-77
2022/05/01 00:30:47;;;;;;;27.70;20.75;;;9.20;99.90;;;;;;5066114;28;20086;-78
2022/05/01 00:38:41;;;;;;;31.27;19.88;;;9.00;99.90;;;;;;5074012;28;20052;-76
2022/05/01 00:41:08;;;;;;;25.85;18.60;;;9.00;99.90;;;;;;5065914;28;20069;-77
2022/05/01 00:43:57;;;;;;;25.08;18.17;;;9.00;99.90;;;;;;5083180;28;20076;-77
2022/05/01 00:46:27;;;;;;;23.67;18.23;;;9.00;99.90;;;;;;5065138;28;20072;-77
2022/05/01 00:48:55;;;;;;;22.92;17.33;;;9.10;99.90;;;;;;5066833;28;20419;-77
2022/05/01 00:51:24;;;;;;;24.02;17.90;;;9.10;99.90;;;;;;5079217;28;20128;-78
2022/05/01 00:53:53;;;;;;;22.55;17.90;;;9.00;99.90;;;;;;5059327;28;20049;-78
2022/05/01 00:56:20;;;;;;;23.50;16.58;;;9.00;99.90;;;;;;5075679;28;20040;-78
2022/05/01 00:58:49;;;;;;;21.55;14.45;;;9.00;99.90;;;;;;5058219;28;20415;-76
2022/05/01 01:01:18;;;;;;;23.23;16.38;;;9.00;99.90;;;;;;5080502;28;20063;-77
2022/05/01 01:03:47;;;;;;;23.00;16.27;;;8.90;99.90;;;;;;5080693;28;20071;-77
2022/05/01 01:06:15;;;;;;;23.23;15.35;;;8.90;99.90;;;;;;5088777;28;20037;-77
2022/05/01 01:08:43;;;;;;;27.20;16.98;;;8.90;99.90;;;;;;5072420;28;20044;-77
2022/05/01 01:11:10;;;;;;;25.10;17.33;;;8.90;99.90;;;;;;5086181;28;20059;-76
2022/05/01 01:13:38;;;;;;;23.75;16.67;;;8.90;99.90;;;;;;5078949;28;20044;-75
2022/05/01 01:16:10;;;;;;;24.75;16.00;;;8.90;99.90;;;;;;5077148;28;20429;-76
2022/05/01 01:18:39;;;;;;;22.67;16.13;;;8.90;99.90;;;;;;5059703;28;20061;-76
2022/05/01 01:21:10;;;;;;;27.25;17.58;;;8.80;99.90;;;;;;5077046;28;20472;-77
2022/05/01 01:23:39;;;;;;;25.02;17.00;;;8.70;99.90;;;;;;5076646;28;20044;-77
2022/05/01 01:26:07;;;;;;;23.00;16.08;;;8.60;99.90;;;;;;5077042;28;20040;-76
2022/05/01 01:28:36;;;;;;;22.02;16.40;;;8.60;99.90;;;;;;5076924;28;20425;-75
2022/05/01 01:34:06;;;;;;;26.65;17.23;;;8.60;99.90;;;;;;5035006;28;20053;-77
2022/05/01 01:36:38;;;;;;;24.65;16.05;;;8.60;99.90;;;;;;5018292;28;20694;-78
2022/05/01 01:39:06;;;;;;;23.40;15.13;;;8.60;99.90;;;;;;5037979;28;20055;-77
2022/05/01 01:41:34;;;;;;;23.90;15.95;;;8.60;99.90;;;;;;5059980;28;20044;-76
2022/05/01 01:44:02;;;;;;;23.13;16.83;;;8.60;99.90;;;;;;5080804;28;20076;-77
2022/05/01 01:46:34;;;;;;;24.60;17.00;;;8.60;99.90;;;;;;5083204;28;20109;-77
2022/05/01 01:49:01;;;;;;;19.35;15.70;;;8.60;99.90;;;;;;5084700;28;20041;-77
2022/05/01 01:51:28;;;;;;;21.85;15.38;;;8.60;99.90;;;;;;5084466;28;20072;-76
2022/05/01 01:53:57;;;;;;;23.75;16.75;;;8.60;99.90;;;;;;5081559;28;20052;-76
2022/05/01 01:56:25;;;;;;;21.75;16.27;;;8.60;99.90;;;;;;5077138;28;20434;-77
2022/05/01 01:58:53;;;;;;;25.13;15.95;;;8.60;99.90;;;;;;5076695;28;20076;-77
2022/05/01 02:01:20;;;;;;;26.98;17.02;;;8.60;99.90;;;;;;5076381;28;20106;-78
2022/05/01 02:03:48;;;;;;;22.35;15.82;;;8.70;99.90;;;;;;5058293;28;20053;-78
2022/05/01 02:06:16;;;;;;;23.13;16.33;;;8.70;99.90;;;;;;5076817;28;20040;-77
2022/05/01 02:08:43;;;;;;;22.15;16.17;;;8.70;99.90;;;;;;5076966;28;20048;-76
2022/05/01 02:11:12;;;;;;;18.60;14.52;;;8.60;99.90;;;;;;5075930;28;20094;-78
2022/05/01 02:13:39;;;;;;;20.20;13.57;;;8.70;99.90;;;;;;5057941;28;20044;-77
2022/05/01 02:16:08;;;;;;;18.27;11.95;;;8.70;99.90;;;;;;5075954;28;20036;-76
2022/05/01 02:18:35;;;;;;;15.80;11.57;;;8.70;99.90;;;;;;5058060;28;20124;-75
2022/05/01 02:23:48;;;;;;;15.18;10.63;;;8.70;99.90;;;;;;5076536;28;20040;-76
2022/05/01 02:26:17;;;;;;;15.10;10.23;;;8.80;99.90;;;;;;5077086;28;20044;-77
2022/05/01 02:28:45;;;;;;;16.60;11.82;;;8.90;99.90;;;;;;5058693;28;20048;-77
2022/05/01 02:31:12;;;;;;;18.13;13.65;;;8.90;99.90;;;;;;5057813;28;20067;-77
2022/05/01 02:33:40;;;;;;;16.38;11.52;;;8.90;99.90;;;;;;5057685;28;20056;-76
2022/05/01 02:36:08;;;;;;;18.30;12.65;;;8.90;99.90;;;;;;5075612;28;20060;-76
2022/05/01 02:38:36;;;;;;;18.02;12.98;;;8.90;99.90;;;;;;5075560;28;20393;-77
2022/05/01 02:41:03;;;;;;;21.27;14.35;;;8.90;99.90;;;;;;5076067;28;20090;-76
2022/05/01 02:43:32;;;;;;;16.95;13.90;;;9.00;99.90;;;;;;5075650;28;20040;-77
2022/05/01 02:46:00;;;;;;;22.90;15.50;;;9.00;99.90;;;;;;5075142;28;20458;-76
2022/05/01 02:48:28;;;;;;;20.67;13.60;;;9.00;99.90;;;;;;5075571;28;20036;-77
2022/05/01 02:50:56;;;;;;;20.45;13.75;;;9.00;99.90;;;;;;5074984;28;20101;-76
2022/05/01 02:53:23;;;;;;;19.20;13.65;;;8.90;99.90;;;;;;5075273;28;20059;-76
2022/05/01 02:55:51;;;;;;;20.88;14.40;;;8.90;99.90;;;;;;5075090;28;20048;-77
2022/05/01 02:58:18;;;;;;;19.85;13.15;;;9.00;99.90;;;;;;5074905;28;20044;-76
2022/05/01 03:00:47;;;;;;;23.25;13.95;;;8.90;99.90;;;;;;5075016;28;20060;-77
2022/05/01 03:03:15;;;;;;;21.88;13.88;;;8.90;99.90;;;;;;5075843;28;20515;-77
2022/05/01 03:05:42;;;;;;;16.17;12.80;;;8.90;99.90;;;;;;5075779;28;20053;-76
2022/05/01 03:08:12;;;;;;;18.50;12.05;;;8.90;99.90;;;;;;5075039;28;20044;-77
2022/05/01 03:10:40;;;;;;;18.67;12.68;;;8.90;99.90;;;;;;5056467;28;20500;-77
2022/05/01 03:13:08;;;;;;;18.75;13.82;;;9.00;99.90;;;;;;5074703;28;20075;-77
2022/05/01 03:15:35;;;;;;;19.17;14.57;;;8.90;99.90;;;;;;5074752;28;20194;-76
2022/05/01 03:23:34;;;;;;;20.60;14.35;;;8.70;99.90;;;;;;5056137;28;20127;-76
2022/05/01 03:26:02;;;;;;;23.25;15.20;;;8.70;99.90;;;;;;5074682;28;20086;-77
2022/05/01 03:28:30;;;;;;;20.52;14.98;;;8.70;99.90;;;;;;5075076;28;20048;-77
2022/05/01 03:30:58;;;;;;;22.60;14.00;;;8.70;99.90;;;;;;5056487;28;20475;-77
2022/05/01 03:33:27;;;;;;;18.13;13.60;;;8.60;99.90;;;;;;5084760;28;20048;-77
2022/05/01 03:35:55;;;;;;;20.38;13.30;;;8.60;99.90;;;;;;5085135;28;20087;-76
2022/05/01 03:38:22;;;;;;;17.00;11.98;;;8.60;99.90;;;;;;5079509;28;20040;-76
2022/05/01 03:40:50;;;;;;;18.23;13.55;;;8.60;99.90;;;;;;5077516;28;20048;-77
2022/05/01 03:43:17;;;;;;;22.15;15.80;;;8.70;99.90;;;;;;5056391;28;20068;-77
2022/05/01 03:45:45;;;;;;;23.15;16.50;;;8.70;99.90;;;;;;5075007;28;20050;-77
2022/05/01 03:48:13;;;;;;;21.92;14.93;;;8.80;99.90;;;;;;5074433;28;20082;-77
2022/05/01 03:50:42;;;;;;;20.98;13.70;;;8.80;99.90;;;;;;5074102;28;20128;-77
2022/05/01 03:53:09;;;;;;;19.73;13.60;;;8.90;99.90;;;;;;5075129;28;20096;-77
2022/05/01 03:55:36;;;;;;;19.58;13.25;;;8.90;99.90;;;;;;5076142;28;20086;-76
2022/05/01 03:58:05;;;;;;;21.48;13.85;;;8.90;99.90;;;;;;5075925;28;20037;-76
2022/05/01 04:00:32;;;;;;;24.33;14.10;;;9.00;99.90;;;;;;5074634;28;20067;-77
2022/05/01 04:02:59;;;;;;;23.48;15.57;;;9.00;99.90;;;;;;5056069;28;20064;-77
2022/05/01 04:05:27;;;;;;;19.23;13.88;;;9.10;99.90;;;;;;5057194;28;20427;-76
2022/05/01 04:07:56;;;;;;;19.73;13.18;;;9.10;99.90;;;;;;5056503;28;20041;-77
2022/05/01 04:10:24;;;;;;;19.25;12.95;;;9.10;99.90;;;;;;5056087;28;20056;-76
2022/05/01 04:12:51;;;;;;;20.75;13.00;;;9.00;99.90;;;;;;5074193;28;20135;-76
2022/05/01 04:15:19;;;;;;;21.27;13.27;;;9.10;99.90;;;;;;5074242;28;20040;-76
2022/05/01 04:17:46;;;;;;;20.27;12.85;;;9.10;99.90;;;;;;5074621;28;20502;-77
2022/05/01 04:20:16;;;;;;;17.00;13.32;;;9.10;99.90;;;;;;5074260;28;20047;-76
2022/05/01 04:22:44;;;;;;;20.70;14.05;;;9.20;99.90;;;;;;5073831;28;20127;-75
2022/05/01 04:25:18;;;;;;;21.00;14.35;;;9.20;99.90;;;;;;5055994;28;20139;-76
2022/05/01 04:27:46;;;;;;;16.77;12.98;;;9.20;99.90;;;;;;5073771;28;20036;-75
2022/05/01 04:30:15;;;;;;;20.95;13.25;;;9.30;99.90;;;;;;5055654;28;20511;-75
2022/05/01 04:32:53;;;;;;;18.00;12.15;;;9.30;99.90;;;;;;5073533;28;20045;-77
2022/05/01 04:35:23;;;;;;;14.88;11.20;;;9.40;99.90;;;;;;5076888;28;20407;-77
2022/05/01 04:37:51;;;;;;;15.95;11.77;;;9.50;99.90;;;;;;5079601;28;20044;-76
2022/05/01 04:40:20;;;;;;;16.63;12.43;;;9.60;99.90;;;;;;5060636;28;20127;-75
2022/05/01 04:42:48;;;;;;;18.48;13.27;;;9.70;99.90;;;;;;5082315;28;20045;-76
2022/05/01 04:45:15;;;;;;;14.90;11.93;;;9.80;99.90;;;;;;5063356;28;20056;-77
2022/05/01 04:47:42;;;;;;;14.57;10.93;;;9.90;99.90;;;;;;5060098;28;20041;-77
2022/05/01 04:50:11;;;;;;;16.40;10.98;;;9.90;99.90;;;;;;5078202;28;20049;-77
2022/05/01 04:52:39;;;;;;;17.05;11.27;;;10.00;99.90;;;;;;5081653;28;20037;-77
2022/05/01 04:55:08;;;;;;;16.45;11.48;;;10.00;99.90;;;;;;5083814;28;20044;-77
2022/05/01 04:57:39;;;;;;;15.77;11.30;;;10.20;99.90;;;;;;5082664;28;20123;-76
2022/05/01 05:00:08;;;;;;;16.27;11.52;;;10.30;99.90;;;;;;5082841;28;20044;-76
2022/05/01 05:02:41;;;;;;;14.82;11.38;;;10.50;99.90;;;;;;5080298;28;20044;-76
2022/05/01 05:05:11;;;;;;;14.52;11.77;;;10.50;99.90;;;;;;5078718;28;20044;-77
2022/05/01 05:07:38;;;;;;;17.23;13.20;;;10.60;99.90;;;;;;5077262;28;20407;-77
2022/05/01 05:10:06;;;;;;;18.48;12.60;;;10.60;99.90;;;;;;5077454;28;20048;-76
2022/05/01 05:12:34;;;;;;;23.67;15.45;;;10.70;99.90;;;;;;5077087;28;20047;-77
2022/05/01 05:15:04;;;;;;;20.85;15.05;;;10.80;99.90;;;;;;5076854;28;20055;-77
2022/05/01 05:17:32;;;;;;;22.50;15.75;;;10.90;99.90;;;;;;5077858;28;20044;-76
2022/05/01 05:20:01;;;;;;;43.83;24.23;;;11.00;99.90;;;;;;5077880;28;20048;-76
2022/05/01 05:22:28;;;;;;;21.83;15.25;;;11.00;99.90;;;;;;5077843;28;20060;-77
2022/05/01 05:24:56;;;;;;;23.17;15.63;;;11.10;99.90;;;;;;5060218;28;20044;-76
2022/05/01 05:27:25;;;;;;;19.17;14.02;;;11.20;99.90;;;;;;5076914;28;20396;-77
2022/05/01 05:29:54;;;;;;;19.38;13.93;;;11.30;99.90;;;;;;5076995;28;20044;-77
2022/05/01 05:32:24;;;;;;;18.90;13.60;;;11.30;99.90;;;;;;5077598;28;20043;-75
2022/05/01 05:34:52;;;;;;;16.95;13.32;;;11.30;99.90;;;;;;5076970;28;20045;-75
2022/05/01 05:37:20;;;;;;;19.23;13.15;;;11.40;99.90;;;;;;5076998;28;20044;-77
2022/05/01 05:39:49;;;;;;;18.55;13.73;;;11.60;99.90;;;;;;5059402;28;20436;-77
2022/05/01 05:42:18;;;;;;;20.08;14.32;;;11.70;99.90;;;;;;5059048;28;20123;-77
2022/05/01 05:44:45;;;;;;;18.20;14.50;;;11.80;99.90;;;;;;5076332;28;20048;-76
2022/05/01 05:47:13;;;;;;;20.40;14.32;;;11.80;99.90;;;;;;5058458;28;20106;-77
2022/05/01 05:49:42;;;;;;;20.73;13.02;;;11.80;99.90;;;;;;5076583;28;20048;-77
2022/05/01 05:52:10;;;;;;;17.92;13.23;;;11.80;99.90;;;;;;5058469;28;20051;-76
2022/05/01 05:54:39;;;;;;;17.40;14.38;;;12.00;99.90;;;;;;5058306;28;20056;-76
2022/05/01 05:57:07;;;;;;;19.80;14.52;;;12.10;99.90;;;;;;5058611;28;20048;-77
2022/05/01 05:59:35;;;;;;;23.00;14.75;;;12.10;99.90;;;;;;5058312;28;20059;-77
2022/05/01 06:02:03;;;;;;;21.58;15.13;;;12.20;99.90;;;;;;5076799;28;20066;-76
2022/05/01 06:04:30;;;;;;;18.45;13.40;;;12.30;99.90;;;;;;5076396;28;20042;-77
2022/05/01 06:06:59;;;;;;;17.58;13.07;;;12.40;99.90;;;;;;5058352;28;20082;-77
2022/05/01 06:09:26;;;;;;;18.67;13.15;;;12.60;99.90;;;;;;5076266;28;20043;-76
2022/05/01 06:11:54;;;;;;;17.85;12.98;;;12.70;99.90;;;;;;5076017;28;20074;-77
2022/05/01 06:14:21;;;;;;;18.90;12.23;;;12.80;99.90;;;;;;5075807;28;20079;-77
2022/05/01 06:16:49;;;;;;;14.27;11.50;;;13.00;99.90;;;;;;5058299;28;20072;-77
2022/05/01 06:19:16;;;;;;;15.52;11.80;;;13.10;99.90;;;;;;5058123;28;20052;-76
2022/05/01 06:21:44;;;;;;;19.58;13.18;;;13.60;99.90;;;;;;5076921;28;20364;-77
2022/05/01 06:24:13;;;;;;;17.45;11.55;;;14.20;99.90;;;;;;5077546;28;20568;-77
2022/05/01 06:26:40;;;;;;;16.58;11.57;;;14.90;99.90;;;;;;5081926;28;20058;-76
2022/05/01 06:29:08;;;;;;;13.52;10.43;;;15.60;99.90;;;;;;5082204;28;20442;-77
2022/05/01 06:31:39;;;;;;;15.13;9.90;;;16.20;99.90;;;;;;5082022;28;20044;-76
2022/05/01 06:34:07;;;;;;;14.25;10.68;;;16.90;99.90;;;;;;5076936;28;20123;-77
2022/05/01 06:36:35;;;;;;;12.43;9.35;;;17.40;99.90;;;;;;5058520;28;20056;-77
2022/05/01 06:39:02;;;;;;;11.68;8.95;;;17.80;99.90;;;;;;5075840;28;20571;-76
2022/05/01 06:41:31;;;;;;;11.18;8.82;;;18.10;99.90;;;;;;5060430;28;20441;-77
2022/05/01 06:43:59;;;;;;;14.57;10.90;;;18.30;99.90;;;;;;5084908;28;20044;-77
2022/05/01 06:46:26;;;;;;;18.67;11.68;;;18.50;99.90;;;;;;5085973;28;20059;-78
2022/05/01 06:48:54;;;;;;;15.80;11.60;;;18.40;99.90;;;;;;5084466;28;20120;-76
2022/05/01 06:51:21;;;;;;;13.00;10.48;;;18.40;99.90;;;;;;5085074;28;20071;-76
2022/05/01 06:53:49;;;;;;;13.38;9.40;;;18.50;99.90;;;;;;5083138;28;20048;-77
2022/05/01 06:56:16;;;;;;;14.30;9.57;;;18.20;99.90;;;;;;5084997;28;20044;-76
2022/05/01 06:58:45;;;;;;;14.70;9.63;;;18.10;99.90;;;;;;5077636;28;20040;-75
2022/05/01 07:01:13;;;;;;;11.43;8.93;;;18.10;99.90;;;;;;5076357;28;20515;-76
2022/05/01 07:03:42;;;;;;;12.00;9.55;;;17.80;99.90;;;;;;5076467;28;20036;-77
2022/05/01 07:06:09;;;;;;;12.35;9.38;;;18.10;99.90;;;;;;5083061;28;20096;-76
2022/05/01 07:08:37;;;;;;;10.70;8.45;;;18.30;99.90;;;;;;5085913;28;20487;-77
2022/05/01 07:11:04;;;;;;;12.40;8.23;;;18.40;99.90;;;;;;5078005;28;20393;-77
2022/05/01 07:13:32;;;;;;;11.57;8.70;;;18.40;99.90;;;;;;5075060;28;20044;-77
2022/05/01 07:16:01;;;;;;;12.20;8.30;;;18.30;99.90;;;;;;5075143;28;20060;-76
2022/05/01 07:18:29;;;;;;;15.68;9.30;;;18.20;99.90;;;;;;5074697;28;20045;-76
2022/05/01 07:20:56;;;;;;;16.92;9.77;;;18.40;99.90;;;;;;5074726;28;20483;-76
2022/05/01 07:23:25;;;;;;;12.43;9.40;;;18.50;99.90;;;;;;5074805;28;20044;-76
2022/05/01 07:25:53;;;;;;;15.05;9.73;;;18.70;99.90;;;;;;5075127;28;20045;-77
2022/05/01 07:28:21;;;;;;;14.65;9.43;;;19.10;99.90;;;;;;5056547;28;20455;-77
2022/05/01 07:30:48;;;;;;;13.98;9.57;;;19.50;99.90;;;;;;5075139;28;20044;-76
2022/05/01 07:33:17;;;;;;;10.43;8.27;;;19.40;99.90;;;;;;5074582;28;20059;-77
2022/05/01 07:35:46;;;;;;;14.02;9.55;;;19.30;99.90;;;;;;5075858;28;20123;-78
2022/05/01 07:38:13;;;;;;;10.75;8.20;;;19.20;99.90;;;;;;5083361;28;20048;-77
2022/05/01 07:40:41;;;;;;;10.50;8.32;;;19.40;99.90;;;;;;5088519;28;20048;-76
2022/05/01 07:43:08;;;;;;;10.73;7.25;;;19.70;99.90;;;;;;5079829;28;20048;-77
2022/05/01 07:45:35;;;;;;;11.45;7.78;;;20.00;99.90;;;;;;5075906;28;20037;-77
2022/05/01 07:48:03;;;;;;;12.52;7.80;;;20.20;99.90;;;;;;5075081;28;20062;-77
2022/05/01 07:50:32;;;;;;;11.75;7.38;;;20.40;99.90;;;;;;5075292;28;20442;-77
2022/05/01 07:52:59;;;;;;;12.00;6.55;;;20.40;99.90;;;;;;5074680;28;20501;-78
2022/05/01 07:55:27;;;;;;;10.18;6.95;;;20.50;99.90;;;;;;5075456;28;20033;-75
2022/05/01 07:57:55;;;;;;;12.05;7.75;;;20.60;99.90;;;;;;5074950;28;20416;-77
2022/05/01 08:00:22;;;;;;;10.10;7.05;;;20.80;99.90;;;;;;5074814;28;20045;-77
2022/05/01 08:05:50;;;;;;;8.90;6.65;;;20.70;99.90;;;;;;5013384;28;20444;-77
2022/05/01 08:08:18;;;;;;;8.05;6.40;;;20.60;99.90;;;;;;5012997;28;20054;-77
2022/05/01 08:10:45;;;;;;;11.60;6.10;;;20.90;99.90;;;;;;5042924;28;20055;-76
2022/05/01 08:13:13;;;;;;;7.25;6.00;;;21.10;99.90;;;;;;5057647;28;20070;-77
2022/05/01 08:15:40;;;;;;;5.40;4.40;;;21.30;99.90;;;;;;5058464;28;20052;-76
2022/05/01 08:21:07;;;;;;;9.90;5.38;;;20.60;99.90;;;;;;5075328;28;20071;-76
2022/05/01 08:23:36;;;;;;;7.03;4.97;;;20.70;99.90;;;;;;5076047;28;20580;-76
2022/05/01 08:26:04;;;;;;;6.85;4.97;;;20.70;99.90;;;;;;5076393;28;20043;-77
2022/05/01 08:28:31;;;;;;;11.73;5.30;;;21.00;99.90;;;;;;5075411;28;20044;-76
2022/05/01 08:31:00;;;;;;;6.30;4.63;;;21.30;99.90;;;;;;5076040;28;20036;-77
2022/05/01 08:33:28;;;;;;;4.82;3.95;;;21.50;99.90;;;;;;5075542;28;20040;-77
2022/05/01 08:35:57;;;;;;;5.93;4.47;;;21.70;99.90;;;;;;5075108;28;20484;-76
2022/05/01 08:38:25;;;;;;;6.90;4.63;;;21.80;99.90;;;;;;5075230;28;20060;-76
2022/05/01 08:40:53;;;;;;;7.30;4.40;;;21.70;99.90;;;;;;5056075;28;20044;-76
2022/05/01 08:43:22;;;;;;;5.90;4.10;;;21.70;99.90;;;;;;5074274;28;20045;-77
2022/05/01 08:45:59;;;;;;;5.18;3.67;;;22.00;99.90;;;;;;5074295;28;20036;-77
2022/05/01 08:48:31;;;;;;;8.07;4.68;;;22.10;99.90;;;;;;5074042;28;20044;-77
2022/05/01 08:51:02;;;;;;;5.55;4.40;;;22.10;99.90;;;;;;5075296;28;20044;-76
2022/05/01 08:53:30;;;;;;;5.93;4.63;;;21.80;99.90;;;;;;5074562;28;20044;-76
2022/05/01 08:55:57;;;;;;;4.43;3.90;;;21.60;99.90;;;;;;5057124;28;20434;-76
2022/05/01 08:58:26;;;;;;;5.72;4.00;;;21.80;99.90;;;;;;5057264;28;20054;-77
2022/05/01 09:00:53;;;;;;;5.78;4.35;;;22.00;99.90;;;;;;5073808;28;20056;-77
2022/05/01 09:03:22;;;;;;;5.30;4.20;;;22.00;99.90;;;;;;5073787;28;20506;-77
2022/05/01 09:05:49;;;;;;;8.55;4.45;;;22.00;99.90;;;;;;5073683;28;20143;-76
2022/05/01 09:08:18;;;;;;;5.07;3.95;;;22.40;99.90;;;;;;5074681;28;20048;-76
2022/05/01 09:10:46;;;;;;;5.40;4.18;;;22.20;99.90;;;;;;5073976;28;20123;-76
2022/05/01 09:13:13;;;;;;;6.18;4.43;;;22.10;99.90;;;;;;5058085;28;20056;-76
2022/05/01 09:15:43;;;;;;;8.23;4.43;;;22.00;99.90;;;;;;5053930;28;20037;-77
2022/05/01 09:18:14;;;;;;;9.07;4.50;;;22.20;99.90;;;;;;5036743;28;20135;-76
2022/05/01 09:21:03;;;;;;;6.30;4.53;;;22.50;99.90;;;;;;5038089;28;20492;-79
2022/05/01 09:23:39;;;;;;;5.93;4.35;;;22.30;99.90;;;;;;5039816;28;20052;-77
2022/05/01 09:26:08;;;;;;;6.28;4.85;;;22.20;99.90;;;;;;5057717;28;20053;-77
2022/05/01 09:28:36;;;;;;;7.57;4.85;;;22.20;99.90;;;;;;5057612;28;20476;-78
2022/05/01 09:31:03;;;;;;;7.28;4.70;;;22.30;99.90;;;;;;5057106;28;20080;-77
2022/05/01 09:33:30;;;;;;;7.32;4.70;;;22.20;99.90;;;;;;5039036;28;20045;-77
2022/05/01 09:35:58;;;;;;;5.60;4.28;;;22.40;99.90;;;;;;5057613;28;20484;-77
2022/05/01 09:38:26;;;;;;;7.60;4.40;;;22.40;99.90;;;;;;5039337;28;20640;-77
2022/05/01 09:40:58;;;;;;;5.45;3.90;;;22.60;99.90;;;;;;5056698;28;20044;-76
2022/05/01 09:43:36;;;;;;;5.68;3.63;;;22.70;99.90;;;;;;5057348;28;20045;-77
2022/05/01 09:46:18;;;;;;;7.93;3.85;;;22.80;99.90;;;;;;5057201;28;20127;-76
2022/05/01 09:48:58;;;;;;;7.72;4.22;;;22.70;99.90;;;;;;5056547;28;20108;-77
2022/05/01 09:51:26;;;;;;;6.10;4.18;;;22.60;99.90;;;;;;5057225;28;20411;-76
2022/05/01 09:53:54;;;;;;;5.40;3.88;;;22.80;99.90;;;;;;5056892;28;20059;-77
2022/05/01 09:56:23;;;;;;;6.38;4.90;;;23.00;99.90;;;;;;5056777;28;20048;-76
2022/05/01 09:58:59;;;;;;;5.13;4.00;;;23.20;99.90;;;;;;5057086;28;20116;-75
2022/05/01 10:01:27;;;;;;;6.63;4.50;;;23.10;99.90;;;;;;5057005;28;20124;-76
2022/05/01 10:03:57;;;;;;;6.38;4.20;;;22.70;99.70;;;;;;5038235;28;20132;-75
2022/05/01 10:06:25;;;;;;;5.30;4.05;;;22.40;99.50;;;;;;5041440;28;20052;-76
2022/05/01 10:08:53;;;;;;;6.90;4.00;;;22.20;98.80;;;;;;5061024;28;20053;-75
2022/05/01 10:11:24;;;;;;;8.23;4.57;;;22.20;99.40;;;;;;5061649;28;20041;-76
2022/05/01 10:13:52;;;;;;;10.02;5.63;;;22.10;99.00;;;;;;5077853;28;20044;-75
2022/05/01 10:16:19;;;;;;;5.88;3.50;;;22.40;98.50;;;;;;5076072;28;20051;-76
2022/05/01 10:18:47;;;;;;;7.10;4.25;;;22.20;98.10;;;;;;5075792;28;20103;-75
2022/05/01 10:21:14;;;;;;;7.32;4.10;;;22.20;96.80;;;;;;5075702;28;20044;-77
2022/05/01 10:23:42;;;;;;;5.72;4.10;;;22.50;97.10;;;;;;5075104;28;20068;-76
2022/05/01 10:26:16;;;;;;;6.60;4.22;;;22.80;97.20;;;;;;5057734;28;20411;-76
2022/05/01 10:29:11;;;;;;;7.38;4.45;;;23.10;98.10;;;;;;5075766;28;20479;-75
2022/05/01 10:32:21;;;;;;;6.43;3.80;;;23.50;97.20;;;;;;5055747;28;20052;-76
2022/05/01 10:35:34;;;;;;;7.32;4.63;;;24.00;96.20;;;;;;5074297;28;20403;-76
2022/05/01 10:38:12;;;;;;;6.72;4.15;;;24.40;95.40;;;;;;4993404;28;20109;-75
2022/05/01 10:40:43;;;;;;;9.27;5.07;;;24.60;95.50;;;;;;5062317;28;20080;-76
2022/05/01 10:43:28;;;;;;;6.85;4.50;;;24.40;98.30;;;;;;5074313;28;20488;-75
2022/05/01 10:46:00;;;;;;;11.57;5.82;;;23.60;99.60;;;;;;5056645;28;20040;-76
2022/05/01 10:48:36;;;;;;;8.02;5.70;;;23.60;99.90;;;;;;5056956;28;20139;-75
2022/05/01 10:51:21;;;;;;;;;;;23.10;99.90;;;;;;5075406;28;20040;-75
2022/05/01 10:54:21;;;;;;;8.30;5.18;;;22.70;99.90;;;;;;5074558;28;20395;-74
2022/05/01 10:56:51;;;;;;;11.57;5.78;;;22.20;99.90;;;;;;5074921;28;20131;-76
2022/05/01 10:59:46;;;;;;;8.52;5.82;;;21.90;99.90;;;;;;5075413;28;20116;-76
2022/05/01 11:02:24;;;;;;;11.50;6.35;;;21.90;99.90;;;;;;5063706;28;20052;-75
2022/05/01 11:04:53;;;;;;;8.75;5.50;;;22.00;99.90;;;;;;5058895;28;20040;-75
2022/05/01 11:07:22;;;;;;;11.07;6.78;;;22.00;99.90;;;;;;5075263;28;20403;-77
2022/05/01 11:09:53;;;;;;;9.95;5.70;;;21.70;99.90;;;;;;5074466;28;20044;-77
2022/05/01 11:12:22;;;;;;;8.02;5.57;;;21.50;99.90;;;;;;5031480;28;1231701;-76
2022/05/01 11:14:54;;;;;;;10.35;5.72;;;21.40;99.90;;;;;;5075318;28;20048;-77
2022/05/01 11:17:52;;;;;;;11.82;6.28;;;21.40;99.90;;;;;;5075296;28;20045;-76
2022/05/01 11:20:34;;;;;;;10.07;6.03;;;21.30;99.90;;;;;;5074832;28;20144;-76
2022/05/01 11:23:31;;;;;;;10.18;5.85;;;21.10;99.90;;;;;;5076157;28;20119;-77
2022/05/01 11:26:17;;;;;;;8.20;6.75;;;21.20;99.90;;;;;;5075502;28;20048;-76
2022/05/01 11:28:55;;;;;;;38.45;12.00;;;21.10;99.90;;;;;;5074818;28;20048;-77
2022/05/01 11:31:48;;;;;;;28.42;9.88;;;21.10;99.90;;;;;;5075388;28;20075;-78
2022/05/01 11:37:48;;;;;;;26.67;11.18;;;17.00;99.90;;;;;;5078115;28;20080;-76
2022/05/01 11:40:27;;;;;;;0.70;0.70;;;15.50;99.90;;;;;;5062945;28;20071;-77
2022/05/01 11:43:16;;;;;;;0.95;0.68;;;14.40;99.90;;;;;;5070660;28;20044;-78
2022/05/01 11:45:45;;;;;;;0.40;0.40;;;13.80;99.90;;;;;;5068775;28;20512;-76
2022/05/01 11:48:14;;;;;;;0.25;0.25;;;12.30;99.90;;;;;;5062811;28;20040;-78
2022/05/01 11:50:44;;;;;;;0.55;0.55;;;11.70;99.90;;;;;;5078421;28;20067;-78
2022/05/01 11:53:23;;;;;;;0.00;0.00;;;12.60;99.90;;;;;;5059556;28;20049;-77
2022/05/01 12:04:28;;;;;;;0.20;0.20;;;13.40;99.90;;;;;;5057297;28;20051;-77
2022/05/01 12:07:02;;;;;;;0.15;0.15;;;13.30;99.90;;;;;;5059527;28;20392;-76
2022/05/01 12:09:31;;;;;;;0.22;0.22;;;13.20;99.90;;;;;;5075788;28;20155;-76
2022/05/01 12:12:01;;;;;;;0.10;0.10;;;13.20;99.90;;;;;;5076136;28;20056;-76
2022/05/01 12:14:29;;;;;;;3.83;0.95;;;13.40;99.90;;;;;;5059355;28;20082;-77
2022/05/01 12:16:57;;;;;;;1.13;0.63;;;13.50;99.90;;;;;;5058907;28;20046;-77
2022/05/01 12:19:36;;;;;;;0.00;0.00;;;13.70;99.90;;;;;;5074863;28;20048;-77
2022/05/01 12:22:07;;;;;;;1.10;1.05;;;13.80;99.90;;;;;;5057165;28;20139;-78
2022/05/01 12:24:36;;;;;;;1.65;1.50;;;13.90;99.90;;;;;;5057097;28;20049;-78
2022/05/01 12:27:04;;;;;;;0.20;0.20;;;14.20;99.90;;;;;;5058410;28;20056;-77
2022/05/01 12:29:33;;;;;;;1.08;0.98;;;14.50;99.90;;;;;;5075325;28;20051;-77
2022/05/01 12:32:03;;;;;;;0.60;0.60;;;14.90;99.90;;;;;;5056508;28;20427;-76
2022/05/01 12:34:32;;;;;;;0.82;0.40;;;15.30;99.90;;;;;;5074358;28;20064;-77
2022/05/01 12:37:01;;;;;;;0.00;0.00;;;15.40;99.90;;;;;;5074139;28;20076;-78
2022/05/01 12:39:31;;;;;;;0.20;0.20;;;15.50;99.90;;;;;;5073970;28;20476;-77
2022/05/01 12:45:12;;;;;;;0.32;0.32;;;16.10;99.90;;;;;;5075203;28;20397;-78
2022/05/01 12:47:42;;;;;;;0.03;0.03;;;16.40;99.90;;;;;;5074713;28;20047;-77
2022/05/01 12:50:12;;;;;;;2.00;1.17;;;16.50;99.90;;;;;;5074224;28;20131;-77
2022/05/01 12:52:41;;;;;;;1.70;0.68;;;16.80;99.90;;;;;;5074643;28;20044;-78
2022/05/01 12:55:16;;;;;;;1.15;1.05;;;17.30;99.90;;;;;;5076242;28;20044;-76
2022/05/01 12:57:50;;;;;;;2.45;1.42;;;17.60;99.90;;;;;;5080360;28;20078;-78
2022/05/01 13:00:34;;;;;;;0.10;0.10;;;17.90;99.90;;;;;;5061652;28;20051;-76
2022/05/01 13:03:20;;;;;;;3.85;1.58;;;18.10;99.90;;;;;;5080557;28;20055;-76
2022/05/01 13:06:05;;;;;;;3.40;1.95;;;18.10;99.90;;;;;;5080367;28;20552;-77
2022/05/01 13:08:35;;;;;;;0.10;0.10;;;18.40;99.90;;;;;;5079717;28;20041;-77
2022/05/01 13:11:16;;;;;;;0.80;0.43;;;18.50;99.90;;;;;;5061586;28;20048;-77
2022/05/01 13:13:46;;;;;;;0.10;0.10;;;18.60;99.90;;;;;;5078627;28;20052;-77
2022/05/01 13:16:15;;;;;;;0.03;0.03;;;19.00;99.90;;;;;;5059928;28;20048;-76
2022/05/01 13:18:43;;;;;;;0.65;0.65;;;19.10;99.90;;;;;;5060018;28;20045;-77
2022/05/01 13:21:10;;;;;;;0.65;0.65;;;19.00;99.90;;;;;;5077603;28;20052;-76
2022/05/01 13:23:39;;;;;;;0.08;0.08;;;18.80;99.90;;;;;;5077100;28;20049;-76
2022/05/01 13:26:07;;;;;;;0.32;0.32;;;18.40;99.90;;;;;;5077574;28;20036;-77
2022/05/01 13:28:36;;;;;;;1.50;1.17;;;17.90;99.90;;;;;;5077569;28;20044;-76
2022/05/01 13:31:04;;;;;;;0.30;0.30;;;17.60;99.90;;;;;;5077196;28;20124;-77